Time;durP1;ratioP1;P1;durP2;ratioP2;P2;SDS_P1;SDS_P2;PMS_P1;PMS_P2;Temp;Humidity;BMP_temperature;BMP_pressure;BME280_temperature;BME280_humidity;BME280_pressure;Samples;Min_cycle;Max_cycle;Signal;HPM_P1;HPM_P2
2021/05/03 00:01:03;;;;;;;8.20;4.85;;;;;;;3.79;79.97;99278.03;5091528;28;20431;-69
2021/05/03 00:03:28;;;;;;;6.50;3.85;;;;;;;3.66;80.27;99277.53;5094896;28;20036;-69
2021/05/03 00:05:56;;;;;;;6.15;3.58;;;;;;;3.43;80.86;99266.38;5088393;28;20024;-69
2021/05/03 00:08:25;;;;;;;8.57;3.63;;;;;;;3.33;81.32;99276.25;5072746;28;20025;-69
2021/05/03 00:10:52;;;;;;;5.93;3.53;;;;;;;3.32;81.92;99288.78;5074987;28;20036;-68
2021/05/03 00:13:17;;;;;;;8.90;3.45;;;;;;;3.15;82.29;99287.72;5093015;28;20024;-68
2021/05/03 00:15:43;;;;;;;7.13;4.00;;;;;;;3.14;82.74;99291.34;5082315;28;20058;-68
2021/05/03 00:18:08;;;;;;;6.82;3.80;;;;;;;3.06;82.71;99285.88;5091766;28;20023;-69
2021/05/03 00:20:34;;;;;;;8.57;4.70;;;;;;;3.08;83.11;99290.09;5101211;28;20058;-68
2021/05/03 00:22:59;;;;;;;6.53;3.45;;;;;;;2.96;83.23;99288.59;5102207;28;20117;-68
2021/05/03 00:25:25;;;;;;;6.00;3.30;;;;;;;2.91;83.55;99295.34;5099709;28;20032;-69
2021/05/03 00:27:50;;;;;;;6.22;3.30;;;;;;;2.94;83.54;99282.53;5080070;28;20020;-68
2021/05/03 00:30:16;;;;;;;7.57;3.47;;;;;;;3.11;83.10;99294.31;5090163;28;20023;-69
2021/05/03 00:32:42;;;;;;;6.65;3.88;;;;;;;3.13;82.23;99296.88;5098919;28;20032;-69
2021/05/03 00:35:08;;;;;;;5.35;3.88;;;;;;;2.97;82.45;99292.09;5099682;28;20108;-69
2021/05/03 00:37:33;;;;;;;6.97;3.30;;;;;;;3.00;83.08;99289.16;5082831;28;20051;-68
2021/05/03 00:39:59;;;;;;;4.55;3.10;;;;;;;2.95;82.80;99294.91;5092250;28;20035;-69
2021/05/03 00:42:24;;;;;;;5.50;3.45;;;;;;;2.90;82.98;99290.97;5097084;28;20024;-69
2021/05/03 00:44:51;;;;;;;5.30;3.00;;;;;;;2.80;83.00;99290.97;5085261;28;20424;-69
2021/05/03 00:47:17;;;;;;;3.75;2.90;;;;;;;2.86;82.83;99282.41;5102953;28;20027;-67
2021/05/03 00:49:43;;;;;;;6.25;3.30;;;;;;;2.83;82.92;99296.91;5103474;28;20026;-69
2021/05/03 00:52:08;;;;;;;4.82;3.45;;;;;;;2.76;82.97;99294.94;5079041;28;20103;-69
2021/05/03 00:54:34;;;;;;;6.07;3.20;;;;;;;2.67;83.34;99299.28;5083890;28;20032;-69
2021/05/03 00:56:59;;;;;;;4.22;2.95;;;;;;;2.60;83.77;99290.16;5073271;28;20050;-69
2021/05/03 00:59:24;;;;;;;5.22;3.60;;;;;;;2.54;83.93;99298.72;5092806;28;20072;-69
2021/05/03 01:01:50;;;;;;;5.63;3.38;;;;;;;2.65;83.87;99309.28;5079946;28;20119;-69
2021/05/03 01:04:15;;;;;;;5.85;3.30;;;;;;;2.67;83.51;99299.28;5076387;28;20459;-69
2021/05/03 01:06:40;;;;;;;4.20;3.20;;;;;;;2.56;83.14;99305.59;5084820;28;20094;-69
2021/05/03 01:09:06;;;;;;;5.65;3.20;;;;;;;2.49;83.46;99295.63;5092739;28;20051;-69
2021/05/03 01:11:33;;;;;;;4.95;3.05;;;;;;;2.42;83.76;99308.72;5094690;28;20081;-69
2021/05/03 01:13:58;;;;;;;6.72;3.15;;;;;;;2.35;83.85;99308.41;5104677;28;20051;-69
2021/05/03 01:16:23;;;;;;;6.80;4.43;;;;;;;2.48;84.63;99317.97;5112370;28;20016;-69
2021/05/03 01:18:48;;;;;;;5.68;3.75;;;;;;;2.34;85.13;99311.22;5113481;28;20028;-69
2021/05/03 01:21:25;;;;;;;8.35;4.28;;;;;;;2.15;86.01;99312.88;5107470;28;20037;-69
2021/05/03 01:23:50;;;;;;;5.75;4.03;;;;;;;2.14;86.35;99318.34;5115483;28;20008;-68
2021/05/03 01:26:16;;;;;;;6.03;3.90;;;;;;;2.05;86.41;99312.00;5114888;28;20050;-68
2021/05/03 01:28:41;;;;;;;6.32;3.78;;;;;;;1.97;86.27;99304.69;5084174;28;20056;-67
2021/05/03 01:31:06;;;;;;;6.03;3.67;;;;;;;1.88;85.93;99304.66;5112715;28;20088;-68
2021/05/03 01:33:32;;;;;;;5.85;3.60;;;;;;;1.82;86.30;99302.53;5104786;28;20080;-68
2021/05/03 01:35:57;;;;;;;6.22;4.07;;;;;;;1.86;87.04;99303.94;5094727;28;20063;-68
2021/05/03 01:38:22;;;;;;;5.40;3.95;;;;;;;1.99;86.87;99301.88;5107831;28;20024;-68
2021/05/03 01:40:47;;;;;;;5.53;3.30;;;;;;;2.07;86.25;99310.06;5098216;28;20033;-67
2021/05/03 01:43:17;;;;;;;7.70;4.15;;;;;;;2.00;86.58;99303.56;5098164;28;20042;-68
2021/05/03 01:45:44;;;;;;;6.25;3.63;;;;;;;1.91;86.74;99310.56;5088672;28;20024;-69
2021/05/03 01:48:11;;;;;;;9.05;3.75;;;;;;;1.85;87.05;99307.59;5083637;28;20032;-68
2021/05/03 01:50:37;;;;;;;7.00;4.40;;;;;;;1.79;87.25;99306.31;5077013;28;20085;-69
2021/05/03 01:53:04;;;;;;;5.82;3.50;;;;;;;1.80;86.84;99317.81;5082314;28;20032;-69
2021/05/03 01:55:30;;;;;;;6.22;4.13;;;;;;;1.56;87.35;99304.81;5082999;28;20039;-69
2021/05/03 01:57:56;;;;;;;8.10;4.63;;;;;;;1.53;88.23;99317.44;5087780;28;20480;-69
2021/05/03 02:00:21;;;;;;;6.35;4.65;;;;;;;1.36;87.99;99298.53;5089581;28;20032;-69
2021/05/03 02:02:47;;;;;;;5.90;4.50;;;;;;;1.37;88.75;99314.41;5078743;28;20028;-69
2021/05/03 02:05:21;;;;;;;8.18;4.38;;;;;;;1.30;88.99;99324.75;5088257;28;20024;-69
2021/05/03 02:08:04;;;;;;;5.63;3.88;;;;;;;1.25;89.18;99331.44;5075518;28;20032;-69
2021/05/03 02:10:30;;;;;;;5.22;3.50;;;;;;;1.21;89.15;99327.38;5091338;28;20119;-69
2021/05/03 02:12:57;;;;;;;7.50;4.68;;;;;;;1.24;89.99;99325.28;5082457;28;20477;-69
2021/05/03 02:15:23;;;;;;;6.43;4.38;;;;;;;1.32;89.73;99335.28;5086332;28;20091;-68
2021/05/03 02:17:48;;;;;;;7.55;3.83;;;;;;;1.24;89.22;99337.75;5077117;28;20067;-68
2021/05/03 02:20:16;;;;;;;7.25;4.88;;;;;;;1.53;89.42;99332.59;5094880;28;20053;-69
2021/05/03 02:22:41;;;;;;;7.85;4.18;;;;;;;1.73;88.22;99320.19;5082944;28;20032;-69
2021/05/03 02:25:07;;;;;;;5.65;4.03;;;;;;;1.67;87.43;99323.38;5093412;28;20485;-68
2021/05/03 02:27:32;;;;;;;5.82;3.90;;;;;;;1.60;87.56;99316.88;5089150;28;20385;-68
2021/05/03 02:29:58;;;;;;;8.57;4.55;;;;;;;1.43;88.27;99311.19;5094205;28;20032;-69
2021/05/03 02:32:23;;;;;;;9.88;3.75;;;;;;;1.40;88.40;99316.81;5067800;28;20020;-69
2021/05/03 02:34:49;;;;;;;7.03;4.20;;;;;;;1.42;88.66;99322.03;5095387;28;20103;-68
2021/05/03 02:37:14;;;;;;;9.98;4.20;;;;;;;1.32;88.36;99319.28;5094953;28;20095;-69
2021/05/03 02:39:42;;;;;;;6.78;4.70;;;;;;;1.41;88.95;99317.63;5093842;28;20409;-69
2021/05/03 02:42:10;;;;;;;9.07;4.80;;;;;;;1.38;88.67;99313.41;5089178;28;20028;-68
2021/05/03 02:44:39;;;;;;;6.47;4.20;;;;;;;1.35;88.44;99318.19;5093564;28;20043;-69
2021/05/03 02:47:06;;;;;;;6.07;4.00;;;;;;;1.39;88.44;99320.47;5087656;28;20115;-69
2021/05/03 02:49:31;;;;;;;5.28;3.72;;;;;;;1.31;87.87;99317.63;5077089;28;20266;-68
2021/05/03 02:51:57;;;;;;;7.63;3.92;;;;;;;1.22;87.73;99326.38;5082406;28;20028;-69
2021/05/03 02:54:22;;;;;;;6.97;4.10;;;;;;;1.21;88.57;99327.38;5077770;28;20028;-69
2021/05/03 02:56:47;;;;;;;8.57;4.68;;;;;;;1.20;88.88;99331.81;5104728;22;20021;-70
2021/05/03 02:59:12;;;;;;;6.13;4.57;;;;;;;1.08;88.78;99325.75;5093507;28;20044;-71
2021/05/03 03:01:38;;;;;;;6.10;4.60;;;;;;;1.03;89.55;99333.28;5090193;28;20059;-71
2021/05/03 03:04:03;;;;;;;8.20;4.32;;;;;;;0.97;89.44;99331.13;5093061;28;20032;-71
2021/05/03 03:06:29;;;;;;;6.68;4.30;;;;;;;0.97;89.43;99338.25;5091991;28;20106;-75
2021/05/03 03:08:54;;;;;;;9.23;4.65;;;;;;;0.90;89.76;99323.78;5058014;28;20048;-74
2021/05/03 03:11:21;;;;;;;6.60;4.43;;;;;;;0.83;89.40;99323.44;5077085;28;20381;-74
2021/05/03 03:13:47;;;;;;;7.95;4.70;;;;;;;0.81;89.79;99333.38;5066912;28;20028;-73
2021/05/03 03:16:15;;;;;;;6.82;4.57;;;;;;;1.09;90.30;99345.22;5083533;28;20082;-75
2021/05/03 03:18:40;;;;;;;7.83;4.83;;;;;;;1.21;89.59;99336.19;5081112;28;20032;-73
2021/05/03 03:21:06;;;;;;;9.00;4.68;;;;;;;1.33;89.41;99339.63;5075701;28;20673;-71
2021/05/03 03:23:31;;;;;;;8.32;4.90;;;;;;;1.47;89.25;99338.47;5076212;28;20028;-73
2021/05/03 03:25:56;;;;;;;6.82;4.75;;;;;;;1.53;88.89;99345.91;5081926;28;20060;-73
2021/05/03 03:28:22;;;;;;;8.85;4.45;;;;;;;1.49;88.82;99340.03;5079599;28;20059;-74
2021/05/03 03:30:47;;;;;;;10.90;4.68;;;;;;;1.61;88.05;99335.44;5082687;28;20060;-74
2021/05/03 03:33:12;;;;;;;8.50;4.47;;;;;;;1.67;87.82;99331.38;5078455;28;20081;-72
2021/05/03 03:35:38;;;;;;;8.60;4.75;;;;;;;1.75;87.80;99345.72;5059889;28;20046;-71
2021/05/03 03:38:03;;;;;;;11.50;4.78;;;;;;;1.87;87.51;99343.84;5073136;28;20031;-71
2021/05/03 03:40:28;;;;;;;6.90;4.57;;;;;;;1.97;86.61;99362.56;5083059;28;20040;-71
2021/05/03 03:42:53;;;;;;;11.30;4.93;;;;;;;1.94;86.95;99354.81;5092086;28;20036;-71
2021/05/03 03:45:19;;;;;;;8.98;4.25;;;;;;;2.01;86.48;99361.28;5070558;28;20032;-73
2021/05/03 03:47:45;;;;;;;10.52;4.68;;;;;;;2.04;86.40;99357.50;5090280;28;20487;-72
2021/05/03 03:50:11;;;;;;;7.20;4.40;;;;;;;2.03;86.68;99355.81;5084630;28;20059;-72
2021/05/03 03:52:36;;;;;;;11.55;4.88;;;;;;;2.02;86.65;99364.78;5090217;28;20032;-71
2021/05/03 03:55:02;;;;;;;13.25;6.43;;;;;;;1.85;86.57;99337.78;5062041;28;20161;-72
2021/05/03 03:57:29;;;;;;;9.30;5.78;;;;;;;1.96;86.71;99355.50;5066791;28;20028;-75
2021/05/03 03:59:56;;;;;;;10.60;5.47;;;;;;;2.01;86.75;99357.78;5067983;28;20146;-76
2021/05/03 04:02:21;;;;;;;10.38;5.65;;;;;;;1.96;86.51;99358.19;5069740;28;20051;-75
2021/05/03 04:05:03;;;;;;;8.23;4.05;;;;;;;1.80;87.03;99353.34;5064228;28;20121;-75
2021/05/03 04:07:40;;;;;;;7.30;4.50;;;;;;;1.73;86.90;99373.53;5067801;28;20024;-73
2021/05/03 04:12:50;;;;;;;10.93;4.93;;;;;;;1.65;87.62;99368.00;5085713;28;20032;-77
2021/05/03 04:25:58;;;;;;;9.00;4.90;;;;;;;1.80;86.95;99371.19;5083887;28;20381;-75
2021/05/03 04:28:24;;;;;;;6.70;4.43;;;;;;;1.90;86.48;99383.56;5067967;28;20051;-77
2021/05/03 04:30:49;;;;;;;6.68;4.47;;;;;;;1.89;86.88;99368.56;5069824;28;20020;-77
2021/05/03 04:33:14;;;;;;;7.28;4.75;;;;;;;1.88;86.58;99364.19;5072145;28;20027;-76
2021/05/03 04:35:39;;;;;;;6.63;4.90;;;;;;;1.97;86.36;99358.06;5088493;28;20107;-79
2021/05/03 04:38:05;;;;;;;6.38;4.70;;;;;;;2.07;85.90;99376.78;5064670;28;20016;-77
2021/05/03 04:40:30;;;;;;;8.02;5.32;;;;;;;2.14;86.42;99383.25;5084444;28;20469;-78
2021/05/03 04:42:55;;;;;;;9.50;5.60;;;;;;;2.19;86.15;99389.03;5087543;28;20066;-75
2021/05/03 04:45:21;;;;;;;9.18;5.32;;;;;;;2.30;86.18;99396.06;5079211;28;20028;-72
2021/05/03 04:47:46;;;;;;;9.43;4.97;;;;;;;2.50;85.47;99391.66;5084093;28;20389;-73
2021/05/03 04:50:12;;;;;;;9.65;4.25;;;;;;;2.74;84.57;99393.94;5089768;28;20150;-72
2021/05/03 04:52:38;;;;;;;11.82;4.60;;;;;;;2.70;83.79;99387.19;5087816;28;20028;-74
2021/05/03 04:55:04;;;;;;;7.38;4.55;;;;;;;2.83;83.03;99381.59;5070280;28;20024;-75
2021/05/03 04:57:30;;;;;;;8.27;4.72;;;;;;;2.75;83.09;99400.09;5070005;28;20024;-74
2021/05/03 04:59:55;;;;;;;10.48;4.95;;;;;;;2.68;83.38;99391.81;5084655;28;20089;-78
2021/05/03 05:02:21;;;;;;;8.95;4.75;;;;;;;2.82;83.32;99399.41;5069284;28;20033;-70
2021/05/03 05:04:46;;;;;;;7.25;4.50;;;;;;;2.96;83.72;99397.31;5083330;28;20444;-71
2021/05/03 05:07:11;;;;;;;8.65;4.60;;;;;;;3.02;82.84;99384.25;5084064;28;20039;-72
2021/05/03 05:09:37;;;;;;;10.43;4.53;;;;;;;3.31;82.18;99390.56;5082607;28;20028;-73
2021/05/03 05:12:02;;;;;;;8.82;4.88;;;;;;;3.71;81.40;99387.66;5071681;28;20032;-79
2021/05/03 05:14:27;;;;;;;6.50;4.10;;;;;;;4.22;80.40;99396.19;5065196;28;20020;-73
2021/05/03 05:16:53;;;;;;;7.55;4.15;;;;;;;4.37;78.26;99390.19;5065051;28;20035;-74
2021/05/03 05:19:18;;;;;;;8.95;4.50;;;;;;;4.53;77.87;99405.66;5064352;28;20027;-78
2021/05/03 05:21:44;;;;;;;6.47;4.28;;;;;;;4.53;77.35;99404.78;5066010;28;20496;-80
2021/05/03 05:24:09;;;;;;;6.43;4.32;;;;;;;4.34;77.55;99400.38;5068785;28;20035;-74
2021/05/03 05:26:35;;;;;;;7.38;4.53;;;;;;;4.22;78.43;99394.38;5082023;28;20090;-72
2021/05/03 05:29:00;;;;;;;8.75;4.82;;;;;;;4.25;78.91;99399.44;5085186;28;20086;-70
2021/05/03 05:31:26;;;;;;;7.07;4.22;;;;;;;4.41;78.32;99411.34;5084839;28;20032;-72
2021/05/03 05:33:51;;;;;;;7.38;4.60;;;;;;;4.50;78.36;99419.31;5064887;28;20036;-73
2021/05/03 05:36:16;;;;;;;6.30;4.50;;;;;;;4.65;77.37;99402.75;5067645;28;20043;-73
2021/05/03 05:38:43;;;;;;;12.75;4.18;;;;;;;5.02;76.52;99411.50;5064297;28;20028;-75
2021/05/03 05:41:10;;;;;;;5.28;4.07;;;;;;;5.33;75.08;99408.44;5079152;28;20477;-75
2021/05/03 05:43:35;;;;;;;6.13;4.15;;;;;;;5.52;74.46;99394.00;5079416;28;20101;-75
2021/05/03 05:46:00;;;;;;;10.10;4.57;;;;;;;5.82;73.12;99419.56;5083864;28;20103;-73
2021/05/03 05:48:25;;;;;;;6.55;4.60;;;;;;;6.27;72.29;99399.69;5088788;28;20028;-73
2021/05/03 05:50:51;;;;;;;7.78;4.93;;;;;;;6.70;70.78;99391.59;5083452;28;20029;-73
2021/05/03 05:53:16;;;;;;;8.60;4.90;;;;;;;7.14;69.48;99413.72;5065524;28;20036;-74
2021/05/03 05:55:41;;;;;;;10.25;5.03;;;;;;;7.62;67.65;99412.06;5081788;28;20725;-77
2021/05/03 05:58:07;;;;;;;5.97;4.50;;;;;;;8.22;65.50;99412.59;5066936;28;20031;-72
2021/05/03 06:00:33;;;;;;;6.80;4.63;;;;;;;8.38;65.63;99409.00;5069454;28;20020;-69
2021/05/03 06:02:58;;;;;;;11.18;5.50;;;;;;;8.28;64.50;99395.75;5065121;28;20024;-69
2021/05/03 06:05:24;;;;;;;9.23;5.18;;;;;;;8.51;64.94;99415.59;5075187;28;20027;-69
2021/05/03 06:07:50;;;;;;;7.75;5.03;;;;;;;8.52;64.60;99411.84;5076130;28;20024;-70
2021/05/03 06:10:16;;;;;;;7.35;4.97;;;;;;;8.72;64.43;99401.50;5079853;28;20031;-75
2021/05/03 06:12:41;;;;;;;9.02;4.95;;;;;;;8.90;63.70;99414.69;5082432;28;20012;-73
2021/05/03 06:15:07;;;;;;;8.27;4.90;;;;;;;9.85;61.77;99425.13;5070633;28;20024;-70
2021/05/03 06:17:32;;;;;;;10.13;5.45;;;;;;;11.22;58.04;99413.84;5079574;28;20027;-72
2021/05/03 06:19:57;;;;;;;9.73;5.18;;;;;;;11.65;55.31;99394.84;5082540;28;20027;-69
2021/05/03 06:22:23;;;;;;;8.27;5.20;;;;;;;14.11;50.24;99395.75;5084544;28;20268;-74
2021/05/03 06:24:48;;;;;;;9.68;5.50;;;;;;;15.35;46.81;99391.06;5084462;28;20393;-73
2021/05/03 06:27:13;;;;;;;9.05;5.50;;;;;;;15.83;45.01;99404.19;5080808;28;20036;-72
2021/05/03 06:29:39;;;;;;;8.88;5.63;;;;;;;14.60;46.88;99405.28;5063327;28;20032;-77
2021/05/03 06:32:05;;;;;;;9.27;5.47;;;;;;;15.13;46.43;99406.94;5082254;28;20097;-71
2021/05/03 06:34:31;;;;;;;8.48;5.07;;;;;;;16.74;43.19;99407.22;5081422;28;20074;-73
2021/05/03 06:37:00;;;;;;;7.30;5.30;;;;;;;17.29;41.96;99416.22;5063896;28;20469;-71
2021/05/03 06:39:26;;;;;;;7.55;5.10;;;;;;;17.61;40.43;99415.97;5066067;28;20469;-70
2021/05/03 06:41:52;;;;;;;8.93;5.18;;;;;;;18.39;39.30;99422.22;5083785;28;20070;-71
2021/05/03 06:44:18;;;;;;;8.13;5.32;;;;;;;19.01;37.91;99394.25;5088680;28;20397;-75
2021/05/03 06:46:43;;;;;;;10.68;5.10;;;;;;;19.32;37.45;99414.06;5087161;28;20025;-71
2021/05/03 06:49:09;;;;;;;8.70;5.10;;;;;;;20.02;36.41;99410.94;5073129;28;20399;-72
2021/05/03 06:51:35;;;;;;;7.20;4.55;;;;;;;19.57;36.75;99420.03;5068352;28;20039;-72
2021/05/03 06:54:00;;;;;;;11.27;4.97;;;;;;;17.94;39.40;99415.44;5086391;28;20016;-70
2021/05/03 06:56:26;;;;;;;8.85;5.05;;;;;;;17.31;39.96;99413.25;5088975;28;20074;-75
2021/05/03 06:58:51;;;;;;;9.65;5.63;;;;;;;14.96;44.99;99414.78;5078845;28;20670;-73
2021/05/03 07:01:17;;;;;;;12.05;5.20;;;;;;;15.99;43.35;99409.06;5088941;28;20435;-69
2021/05/03 07:03:43;;;;;;;9.75;5.45;;;;;;;17.92;39.76;99423.06;5086679;28;20051;-69
2021/05/03 07:06:09;;;;;;;11.98;6.10;;;;;;;18.70;38.33;99414.69;5088507;28;20054;-69
2021/05/03 07:08:35;;;;;;;8.77;5.13;;;;;;;20.53;34.92;99414.41;5082552;28;20036;-69
2021/05/03 07:11:05;;;;;;;7.70;5.25;;;;;;;20.86;34.72;99429.19;5089486;28;20020;-69
2021/05/03 07:13:30;;;;;;;8.05;4.95;;;;;;;20.53;35.13;99413.59;5083418;28;20024;-69
2021/05/03 07:15:55;;;;;;;6.95;4.45;;;;;;;21.11;34.62;99427.84;5080749;28;20031;-69
2021/05/03 07:18:21;;;;;;;8.57;4.78;;;;;;;21.75;33.28;99425.25;5082294;28;20110;-69
2021/05/03 07:20:46;;;;;;;9.32;5.20;;;;;;;20.45;35.13;99414.03;5075498;28;20028;-76
2021/05/03 07:23:11;;;;;;;8.30;4.60;;;;;;;21.44;34.01;99413.94;5083262;28;20409;-78
2021/05/03 07:25:36;;;;;;;6.55;4.80;;;;;;;20.54;34.67;99409.78;5069602;28;20127;-78
2021/05/03 07:28:02;;;;;;;8.90;4.60;;;;;;;21.39;33.89;99413.88;5076896;28;20020;-77
2021/05/03 07:30:27;;;;;;;7.15;4.95;;;;;;;19.74;35.94;99422.81;5094478;28;20024;-77
2021/05/03 07:32:52;;;;;;;6.82;4.88;;;;;;;20.29;35.50;99419.31;5076284;28;20028;-78
2021/05/03 07:35:18;;;;;;;5.85;4.50;;;;;;;21.67;34.22;99420.22;5081606;28;20028;-69
2021/05/03 07:37:43;;;;;;;6.00;4.80;;;;;;;21.50;34.12;99409.31;5083819;28;20420;-78
2021/05/03 07:40:09;;;;;;;7.10;5.00;;;;;;;21.87;34.02;99422.31;5087725;28;20028;-78
2021/05/03 07:42:34;;;;;;;5.68;4.68;;;;;;;21.55;33.68;99403.84;5092028;28;20521;-76
2021/05/03 07:44:59;;;;;;;7.80;5.07;;;;;;;22.15;33.56;99420.34;5074910;28;20367;-77
2021/05/03 07:47:26;;;;;;;5.63;4.40;;;;;;;22.03;33.15;99409.50;5086038;28;20024;-78
2021/05/03 07:49:53;;;;;;;6.80;4.60;;;;;;;22.54;32.49;99407.94;5078174;28;20024;-74
2021/05/03 07:52:18;;;;;;;7.68;4.55;;;;;;;22.80;31.52;99424.63;5112948;27;20059;-78
2021/05/03 07:54:44;;;;;;;6.05;4.70;;;;;;;23.15;31.93;99410.16;5093869;28;20541;-76
2021/05/03 07:57:09;;;;;;;6.93;4.80;;;;;;;22.66;32.21;99415.16;5102865;28;20034;-72
2021/05/03 07:59:34;;;;;;;6.68;4.90;;;;;;;23.32;31.83;99400.84;5099870;28;20032;-71
2021/05/03 08:01:59;;;;;;;6.15;4.40;;;;;;;23.68;30.89;99407.22;5113203;28;20032;-75
2021/05/03 08:04:25;;;;;;;6.10;4.90;;;;;;;22.31;32.87;99411.94;5097422;28;20024;-75
2021/05/03 08:06:53;;;;;;;7.72;4.70;;;;;;;22.68;31.97;99401.94;5056361;28;20077;-75
2021/05/03 08:09:18;;;;;;;7.13;4.45;;;;;;;24.19;31.22;99396.22;5063310;28;20027;-74
2021/05/03 08:11:45;;;;;;;5.60;4.32;;;;;;;24.57;30.07;99406.94;5077990;28;20028;-76
2021/05/03 08:14:14;;;;;;;7.15;5.00;;;;;;;24.32;30.16;99394.00;5067560;28;20047;-69
2021/05/03 08:16:40;;;;;;;7.15;4.85;;;;;;;24.66;29.49;99396.97;5078909;28;20024;-73
2021/05/03 08:19:05;;;;;;;6.20;4.65;;;;;;;23.83;30.32;99400.91;5094852;28;20054;-70
2021/05/03 08:21:31;;;;;;;7.50;4.82;;;;;;;22.83;32.07;99413.06;5099296;27;20074;-72
2021/05/03 08:23:56;;;;;;;6.57;4.97;;;;;;;22.50;32.23;99394.94;5085595;28;20020;-73
2021/05/03 08:26:21;;;;;;;8.10;5.05;;;;;;;24.47;30.96;99407.78;5098237;28;20016;-74
2021/05/03 08:28:48;;;;;;;6.68;4.50;;;;;;;24.63;30.38;99398.34;5103725;28;20040;-73
2021/05/03 08:31:14;;;;;;;7.70;4.88;;;;;;;24.62;29.83;99402.22;5100646;28;20032;-69
2021/05/03 08:33:39;;;;;;;5.40;4.78;;;;;;;20.84;34.17;99408.53;5079601;28;20029;-70
2021/05/03 08:36:05;;;;;;;7.28;5.38;;;;;;;17.20;39.62;99408.56;5087955;28;20073;-73
2021/05/03 08:38:30;;;;;;;8.55;5.22;;;;;;;15.69;43.75;99410.78;5117062;27;20089;-76
2021/05/03 08:40:58;;;;;;;10.02;5.13;;;;;;;16.33;42.18;99406.84;5097956;27;20036;-74
2021/05/03 08:43:23;;;;;;;8.20;5.22;;;;;;;15.83;42.59;99400.63;5100711;27;20013;-71
2021/05/03 08:45:49;;;;;;;10.88;5.43;;;;;;;14.89;45.11;99408.53;5090143;27;20019;-74
2021/05/03 08:48:27;;;;;;;7.50;4.90;;;;;;;14.43;45.80;99402.16;5089447;28;20035;-73
2021/05/03 08:51:10;;;;;;;7.10;4.88;;;;;;;14.63;45.53;99409.47;5079582;28;20380;-70
2021/05/03 08:53:40;;;;;;;8.60;4.93;;;;;;;14.92;44.55;99413.53;5090503;28;20033;-70
2021/05/03 08:56:05;;;;;;;5.57;4.65;;;;;;;14.45;45.63;99401.94;5100628;27;20004;-75
2021/05/03 08:58:34;;;;;;;9.02;5.15;;;;;;;13.76;46.51;99415.03;5586223;22;20032;-72
2021/05/03 09:01:00;;;;;;;6.85;5.00;;;;;;;13.68;48.56;99412.53;5086030;28;20499;-72
2021/05/03 09:03:26;;;;;;;7.15;4.57;;;;;;;17.04;43.27;99416.34;5092518;28;20044;-75
2021/05/03 09:05:51;;;;;;;7.25;4.32;;;;;;;19.22;39.47;99395.50;5093124;28;20024;-77
2021/05/03 09:08:27;;;;;;;7.95;4.78;;;;;;;21.04;35.29;99396.94;5075570;28;20473;-72
2021/05/03 09:10:55;;;;;;;6.05;4.72;;;;;;;21.57;32.61;99387.09;5070864;28;20068;-76
2021/05/03 09:13:47;;;;;;;8.98;4.45;;;;;;;20.99;34.13;99389.47;5063106;28;20025;-73
2021/05/03 09:16:22;;;;;;;10.15;4.32;;;;;;;22.33;33.27;99383.28;5030812;28;20125;-75
2021/05/03 09:18:48;;;;;;;5.90;4.30;;;;;;;24.44;31.23;99376.00;5068843;28;20029;-74
2021/05/03 09:21:33;;;;;;;5.00;3.80;;;;;;;23.65;28.94;99382.91;5058230;28;20105;-74
2021/05/03 09:23:59;;;;;;;5.55;3.60;;;;;;;21.80;31.15;99385.91;5070173;28;20050;-72
2021/05/03 09:26:46;;;;;;;6.88;4.35;;;;;;;18.34;35.35;99384.63;5052679;28;20453;-73
2021/05/03 09:29:44;;;;;;;7.60;3.38;;;;;;;20.92;33.23;99377.84;5061936;28;20517;-71
2021/05/03 09:32:13;;;;;;;8.10;3.70;;;;;;;23.14;29.15;99371.81;4999923;28;20576;-74
2021/05/03 09:34:45;;;;;;;4.55;3.13;;;;;;;25.56;27.34;99369.09;5061318;28;20306;-75
2021/05/03 09:37:22;;;;;;;4.72;3.17;;;;;;;24.98;27.31;99357.81;5058084;28;20091;-71
2021/05/03 09:40:03;;;;;;;4.90;3.80;;;;;;;22.99;28.90;99357.97;5071881;28;20537;-74
2021/05/03 09:43:00;;;;;;;4.57;3.40;;;;;;;19.46;33.54;99366.00;5057302;28;20428;-72
2021/05/03 09:45:30;;;;;;;11.63;4.18;;;;;;;17.84;36.32;99370.56;5028678;28;20036;-74
2021/05/03 09:47:57;;;;;;;9.43;3.50;;;;;;;16.58;37.47;99356.78;5071313;28;20020;-74
2021/05/03 09:50:26;;;;;;;8.18;3.65;;;;;;;18.87;35.00;99370.97;5071655;28;20535;-70
2021/05/03 09:53:07;;;;;;;9.03;4.00;;;;;;;19.72;33.81;99359.06;5061408;28;20486;-73
2021/05/03 09:55:38;;;;;;;5.82;3.70;;;;;;;19.51;34.51;99354.31;5063025;28;20024;-72
2021/05/03 09:58:09;;;;;;;5.60;3.83;;;;;;;17.78;35.96;99350.41;5073455;28;20020;-70
2021/05/03 10:00:39;;;;;;;6.57;4.07;;;;;;;17.59;37.10;99365.28;5060317;28;20394;-70
2021/05/03 10:03:44;;;;;;;10.48;3.90;;;;;;;18.54;36.13;99359.56;5052272;28;20518;-70
2021/05/03 10:06:17;;;;;;;6.55;3.40;;;;;;;20.81;32.00;99354.88;5054422;28;20032;-70
2021/05/03 10:08:45;;;;;;;5.38;3.58;;;;;;;21.71;29.51;99358.00;5076740;28;20028;-71
2021/05/03 10:11:14;;;;;;;6.38;4.53;;;;;;;24.15;28.54;99338.97;5063349;28;20433;-75
2021/05/03 10:13:42;;;;;;;10.05;6.43;;;;;;;25.45;27.01;99339.81;5070182;28;20525;-73
2021/05/03 10:16:08;;;;;;;4.53;3.08;;;;;;;25.77;26.04;99341.22;5070827;28;20032;-73
2021/05/03 10:18:37;;;;;;;5.22;3.15;;;;;;;23.98;27.11;99333.75;5074382;28;20512;-74
2021/05/03 10:21:07;;;;;;;6.15;3.60;;;;;;;18.22;31.56;99350.09;5059965;28;20028;-73
2021/05/03 10:23:32;;;;;;;5.90;3.22;;;;;;;18.70;32.42;99343.44;5068384;28;20032;-74
2021/05/03 10:25:59;;;;;;;5.60;3.15;;;;;;;17.63;32.89;99337.22;5056675;28;20024;-75
2021/05/03 10:28:26;;;;;;;5.97;2.92;;;;;;;18.76;31.92;99342.50;5068567;28;20028;-75
2021/05/03 10:30:56;;;;;;;5.25;2.67;;;;;;;20.70;28.43;99342.09;5075487;28;20398;-75
2021/05/03 10:33:36;;;;;;;3.40;2.38;;;;;;;20.61;27.63;99333.44;5066832;28;20024;-71
2021/05/03 10:36:03;;;;;;;3.40;2.30;;;;;;;20.71;28.68;99330.00;5056697;28;20028;-71
2021/05/03 10:38:30;;;;;;;5.07;2.30;;;;;;;19.77;29.55;99328.97;5075698;28;20020;-71
2021/05/03 10:40:58;;;;;;;9.55;2.10;;;;;;;18.78;30.05;99321.16;5060751;28;20036;-71
2021/05/03 10:43:43;;;;;;;3.53;2.60;;;;;;;16.26;30.91;99321.44;5054893;28;20028;-72
2021/05/03 10:46:48;;;;;;;4.50;2.20;;;;;;;15.11;33.82;99314.47;5074939;28;20039;-70
2021/05/03 10:49:29;;;;;;;4.60;2.17;;;;;;;17.54;32.07;99319.47;5066743;28;20034;-69
2021/05/03 10:51:56;;;;;;;3.75;2.35;;;;;;;16.98;33.01;99307.09;5065447;28;20389;-73
2021/05/03 10:54:34;;;;;;;3.92;3.00;;;;;;;16.94;35.03;99322.28;5072596;28;20038;-74
2021/05/03 10:57:02;;;;;;;3.45;1.98;;;;;;;16.48;32.68;99307.31;5057205;28;20503;-71
2021/05/03 10:59:42;;;;;;;3.47;2.08;;;;;;;15.90;32.92;99312.19;5079060;28;20430;-71
2021/05/03 11:02:09;;;;;;;5.63;2.20;;;;;;;17.62;31.73;99308.16;5082293;28;20032;-73
2021/05/03 11:04:38;;;;;;;3.33;1.77;;;;;;;20.49;28.48;99275.03;5075780;28;20016;-74
2021/05/03 11:07:05;;;;;;;3.20;2.03;;;;;;;21.65;27.44;99290.22;5082679;28;20032;-72
2021/05/03 11:09:33;;;;;;;5.05;2.05;;;;;;;20.29;26.53;99281.09;5050405;28;20040;-73
2021/05/03 11:12:05;;;;;;;3.38;2.03;;;;;;;19.26;29.40;99286.94;5078479;28;20081;-73
2021/05/03 11:14:32;;;;;;;6.43;2.30;;;;;;;16.74;32.22;99295.19;5055595;28;20482;-71
2021/05/03 11:17:00;;;;;;;4.60;2.40;;;;;;;15.84;34.09;99293.16;5062645;28;20032;-73
2021/05/03 11:19:56;;;;;;;7.03;2.95;;;;;;;15.21;34.86;99275.84;5043936;28;20037;-75
2021/05/03 11:22:39;;;;;;;3.92;2.10;;;;;;;16.76;34.02;99293.06;5065115;28;20063;-73
2021/05/03 11:25:10;;;;;;;5.65;2.25;;;;;;;20.44;29.67;99277.69;5054891;28;20363;-74
2021/05/03 11:27:45;;;;;;;4.18;2.40;;;;;;;21.13;27.54;99274.34;5055240;28;20017;-70
2021/05/03 11:30:14;;;;;;;2.42;1.73;;;;;;;23.62;26.94;99254.47;5046751;28;20120;-76
2021/05/03 11:32:40;;;;;;;2.78;1.90;;;;;;;24.15;26.23;99265.16;5061806;28;20029;-71
2021/05/03 11:35:32;;;;;;;3.00;1.83;;;;;;;25.00;23.85;99258.69;5054162;28;20021;-73
2021/05/03 11:38:04;;;;;;;2.03;1.83;;;;;;;25.38;23.66;99242.34;5076240;28;20359;-73
2021/05/03 11:46:33;;;;;;;3.75;1.55;;;;;;;25.23;23.78;99243.31;5055543;28;20603;-74
2021/05/03 11:49:01;;;;;;;4.22;1.95;;;;;;;23.90;24.58;99240.38;5047362;28;20547;-73
2021/05/03 11:51:27;;;;;;;6.82;2.03;;;;;;;21.16;27.01;99244.38;5061336;28;20081;-73
2021/05/03 11:53:53;;;;;;;2.78;1.95;;;;;;;19.37;28.64;99242.13;5059029;28;20436;-73
2021/05/03 11:56:30;;;;;;;3.33;2.20;;;;;;;18.04;30.49;99245.09;5073225;28;20032;-74
2021/05/03 11:59:00;;;;;;;2.75;2.20;;;;;;;17.03;32.55;99245.19;5069386;28;20175;-75